Time;durP1;ratioP1;P1;durP2;ratioP2;P2;SDS_P1;SDS_P2;PMS_P1;PMS_P2;Temp;Humidity;BMP_temperature;BMP_pressure;BME280_temperature;BME280_humidity;BME280_pressure;Samples;Min_cycle;Max_cycle;Signal;HPM_P1;HPM_P2
2021/07/12 00:00:27;;;;;;;3.03;2.03;;;;;;;;;;5075684;28;20205;-86
2021/07/12 00:02:55;;;;;;;1.92;1.83;;;;;;;;;;5075021;28;20220;-87
2021/07/12 00:05:24;;;;;;;1.70;1.60;;;;;;;;;;5074203;28;20717;-87
2021/07/12 00:07:53;;;;;;;1.20;1.20;;;;;;;;;;5074481;28;20184;-87
2021/07/12 00:10:24;;;;;;;1.80;1.70;;;;;;;;;;5074802;28;20212;-86
2021/07/12 00:12:53;;;;;;;1.70;1.60;;;;;;;;;;5074972;28;20224;-85
2021/07/12 00:15:23;;;;;;;2.00;1.90;;;;;;;;;;5075482;28;20575;-87
2021/07/12 00:17:51;;;;;;;1.92;1.77;;;;;;;;;;5075845;28;20208;-87
2021/07/12 00:20:19;;;;;;;1.77;1.67;;;;;;;;;;5075411;28;20194;-86
2021/07/12 00:22:48;;;;;;;3.05;2.22;;;;;;;;;;5074941;28;20232;-86
2021/07/12 00:25:19;;;;;;;2.08;1.98;;;;;;;;;;5075124;28;20225;-87
2021/07/12 00:27:47;;;;;;;1.42;1.38;;;;;;;;;;5074668;28;20204;-86
2021/07/12 00:30:17;;;;;;;1.70;1.60;;;;;;;;;;5073949;28;20185;-86
2021/07/12 00:32:45;;;;;;;1.75;1.65;;;;;;;;;;5073361;28;20213;-87
2021/07/12 00:35:14;;;;;;;2.05;1.90;;;;;;;;;;5073422;28;20190;-86
2021/07/12 00:37:43;;;;;;;2.30;2.10;;;;;;;;;;5071817;28;20201;-85
2021/07/12 00:40:13;;;;;;;2.60;2.40;;;;;;;;;;5072414;28;20205;-86
2021/07/12 00:42:43;;;;;;;2.08;1.98;;;;;;;;;;5072818;28;20228;-86
2021/07/12 00:45:14;;;;;;;2.45;1.73;;;;;;;;;;5072883;28;20209;-86
2021/07/12 00:47:41;;;;;;;2.30;2.10;;;;;;;;;;5072954;28;20216;-86
2021/07/12 00:50:11;;;;;;;1.70;1.60;;;;;;;;;;5072966;28;20189;-86
2021/07/12 00:52:40;;;;;;;1.98;1.60;;;;;;;;;;5072298;28;20235;-86
2021/07/12 00:55:19;;;;;;;2.10;2.00;;;;;;;;;;5072850;28;20189;-85
2021/07/12 00:57:48;;;;;;;1.90;1.80;;;;;;;;;;5072976;28;20208;-86
2021/07/12 01:00:17;;;;;;;1.75;1.65;;;;;;;;;;5072543;28;20268;-86
2021/07/12 01:02:45;;;;;;;2.72;1.95;;;;;;;;;;5073006;28;20228;-86
2021/07/12 01:05:16;;;;;;;1.92;1.83;;;;;;;;;;5072556;28;20213;-86
2021/07/12 01:07:44;;;;;;;1.90;1.80;;;;;;;;;;5072758;28;20212;-86
2021/07/12 01:10:14;;;;;;;2.15;2.05;;;;;;;;;;5072625;28;20647;-86
2021/07/12 01:12:48;;;;;;;2.80;2.30;;;;;;;;;;5072725;28;20220;-87
2021/07/12 01:15:19;;;;;;;3.35;1.98;;;;;;;;;;5072483;28;20584;-86
2021/07/12 01:18:09;;;;;;;2.28;2.00;;;;;;;;;;5072579;28;20189;-87
2021/07/12 01:21:16;;;;;;;1.65;1.52;;;;;;;;;;5072669;28;20196;-86
2021/07/12 01:24:03;;;;;;;2.28;2.08;;;;;;;;;;5072193;28;20200;-86
2021/07/12 01:27:18;;;;;;;1.98;1.80;;;;;;;;;;5072157;28;20695;-86
2021/07/12 01:30:09;;;;;;;2.08;1.98;;;;;;;;;;5068358;28;20204;-85
2021/07/12 01:33:13;;;;;;;2.13;1.92;;;;;;;;;;5072797;28;20225;-87
2021/07/12 01:35:54;;;;;;;1.70;1.60;;;;;;;;;;5068388;28;20204;-86
2021/07/12 01:38:33;;;;;;;2.08;1.98;;;;;;;;;;5072896;28;20621;-87
2021/07/12 01:41:06;;;;;;;2.15;2.05;;;;;;;;;;5074565;28;20197;-86
2021/07/12 01:43:38;;;;;;;1.67;1.58;;;;;;;;;;5076545;28;20644;-86
2021/07/12 01:46:13;;;;;;;1.80;1.70;;;;;;;;;;5076636;28;20674;-86
2021/07/12 01:48:52;;;;;;;1.70;1.60;;;;;;;;;;5076729;28;20181;-86
2021/07/12 01:51:26;;;;;;;2.30;2.10;;;;;;;;;;5076237;28;20224;-86
2021/07/12 01:54:02;;;;;;;1.85;1.75;;;;;;;;;;5076612;28;20192;-86
2021/07/12 01:56:36;;;;;;;1.63;1.58;;;;;;;;;;5076368;28;20655;-87
2021/07/12 01:59:10;;;;;;;2.67;1.77;;;;;;;;;;5076624;28;20548;-85
2021/07/12 02:01:39;;;;;;;1.90;1.80;;;;;;;;;;5076268;28;20243;-87
2021/07/12 02:04:09;;;;;;;2.03;1.92;;;;;;;;;;5076035;28;20197;-86
2021/07/12 02:06:39;;;;;;;2.20;2.10;;;;;;;;;;5075856;28;20225;-87
2021/07/12 02:09:09;;;;;;;3.13;2.92;;;;;;;;;;5075908;28;20193;-86
2021/07/12 02:11:38;;;;;;;3.10;2.80;;;;;;;;;;5075582;28;20239;-87
2021/07/12 02:14:07;;;;;;;6.45;3.20;;;;;;;;;;5075989;28;20181;-87
2021/07/12 02:16:37;;;;;;;3.00;2.65;;;;;;;;;;5075985;28;20181;-86
2021/07/12 02:19:05;;;;;;;3.50;3.20;;;;;;;;;;5076894;28;20185;-86
2021/07/12 02:21:35;;;;;;;2.88;2.67;;;;;;;;;;5076903;28;20216;-86
2021/07/12 02:24:05;;;;;;;2.50;2.30;;;;;;;;;;5076890;28;20516;-87
2021/07/12 02:26:34;;;;;;;2.75;2.55;;;;;;;;;;5076676;28;20225;-86
2021/07/12 02:29:04;;;;;;;2.30;2.10;;;;;;;;;;5076723;28;20193;-86
2021/07/12 02:31:32;;;;;;;2.40;2.28;;;;;;;;;;5075781;28;20217;-85
2021/07/12 02:34:01;;;;;;;4.00;2.00;;;;;;;;;;5075992;28;20603;-86
2021/07/12 02:36:30;;;;;;;1.70;1.60;;;;;;;;;;5076344;28;20192;-86
2021/07/12 02:39:01;;;;;;;2.13;2.03;;;;;;;;;;5076612;28;20185;-85
2021/07/12 02:41:29;;;;;;;1.90;1.80;;;;;;;;;;5076867;28;20300;-86
2021/07/12 02:43:57;;;;;;;1.52;1.42;;;;;;;;;;5076444;28;20173;-85
2021/07/12 02:46:26;;;;;;;1.52;1.42;;;;;;;;;;5076237;28;20224;-86
2021/07/12 02:48:54;;;;;;;1.77;1.67;;;;;;;;;;5075641;28;20197;-85
2021/07/12 02:51:28;;;;;;;1.70;1.60;;;;;;;;;;5074899;28;20221;-86
2021/07/12 02:54:02;;;;;;;1.70;1.60;;;;;;;;;;5075650;28;20394;-87
2021/07/12 02:56:30;;;;;;;1.85;1.75;;;;;;;;;;5075849;28;20589;-86
2021/07/12 02:58:58;;;;;;;1.38;1.27;;;;;;;;;;5075975;28;20217;-86
2021/07/12 03:01:26;;;;;;;2.80;1.83;;;;;;;;;;5075985;28;20217;-87
2021/07/12 03:03:54;;;;;;;2.30;2.10;;;;;;;;;;5075972;28;20206;-87
2021/07/12 03:06:26;;;;;;;1.90;1.80;;;;;;;;;;5075741;28;20255;-86
2021/07/12 03:09:00;;;;;;;2.08;1.85;;;;;;;;;;5076316;28;20185;-87
2021/07/12 03:11:38;;;;;;;1.70;1.60;;;;;;;;;;5076234;28;20230;-86
2021/07/12 03:14:14;;;;;;;1.73;1.63;;;;;;;;;;5075795;28;20185;-87
2021/07/12 03:16:42;;;;;;;1.70;1.60;;;;;;;;;;5075788;28;20670;-86
2021/07/12 03:19:15;;;;;;;1.85;1.75;;;;;;;;;;5075818;28;20219;-87
2021/07/12 03:21:46;;;;;;;1.67;1.58;;;;;;;;;;5075776;28;20213;-87
2021/07/12 03:24:15;;;;;;;1.85;1.75;;;;;;;;;;5078054;28;20188;-87
2021/07/12 03:26:46;;;;;;;2.25;2.05;;;;;;;;;;5077034;28;20308;-87
2021/07/12 03:29:14;;;;;;;3.08;2.70;;;;;;;;;;5077756;28;20201;-87
2021/07/12 03:31:44;;;;;;;3.42;3.22;;;;;;;;;;5077987;28;20300;-86
2021/07/12 03:34:14;;;;;;;2.90;2.70;;;;;;;;;;5082257;28;20177;-86
2021/07/12 03:36:43;;;;;;;2.72;2.53;;;;;;;;;;5083473;28;20284;-86
2021/07/12 03:39:11;;;;;;;3.13;2.13;;;;;;;;;;5082427;28;20209;-86
2021/07/12 03:41:40;;;;;;;2.00;1.90;;;;;;;;;;5079088;28;20239;-87
2021/07/12 03:44:08;;;;;;;1.80;1.70;;;;;;;;;;5078705;28;20555;-86
2021/07/12 03:46:36;;;;;;;1.45;1.35;;;;;;;;;;5077129;28;20225;-86
2021/07/12 03:49:10;;;;;;;1.77;1.67;;;;;;;;;;5078225;28;20205;-86
2021/07/12 03:51:38;;;;;;;2.10;1.95;;;;;;;;;;5074327;28;20228;-86
2021/07/12 03:54:06;;;;;;;1.48;1.38;;;;;;;;;;5073221;28;20667;-86
2021/07/12 03:56:33;;;;;;;1.70;1.60;;;;;;;;;;5073649;28;20205;-86
2021/07/12 03:59:04;;;;;;;1.55;1.45;;;;;;;;;;5073757;28;20528;-86
2021/07/12 04:01:32;;;;;;;2.00;1.83;;;;;;;;;;5073113;28;20231;-85
2021/07/12 04:04:00;;;;;;;1.60;1.50;;;;;;;;;;5073751;28;20186;-87
2021/07/12 04:06:29;;;;;;;1.92;1.83;;;;;;;;;;5073728;28;20216;-86
2021/07/12 04:08:58;;;;;;;1.70;1.27;;;;;;;;;;5073687;28;20223;-86
2021/07/12 04:11:31;;;;;;;1.77;1.67;;;;;;;;;;5073129;28;20643;-86
2021/07/12 04:13:59;;;;;;;1.55;1.45;;;;;;;;;;5073131;28;20607;-87
2021/07/12 04:16:29;;;;;;;2.05;1.95;;;;;;;;;;5073190;28;20193;-86
2021/07/12 04:18:58;;;;;;;1.80;1.70;;;;;;;;;;5073153;28;20201;-86
2021/07/12 04:21:26;;;;;;;1.90;1.80;;;;;;;;;;5073019;28;20221;-87
2021/07/12 04:23:53;;;;;;;2.13;2.03;;;;;;;;;;5073374;28;20636;-85
2021/07/12 04:26:21;;;;;;;2.03;1.92;;;;;;;;;;5072684;28;20208;-86
2021/07/12 04:28:48;;;;;;;1.50;1.40;;;;;;;;;;5073327;28;20197;-85
2021/07/12 04:31:16;;;;;;;1.45;1.40;;;;;;;;;;5073920;28;20185;-86
2021/07/12 04:33:46;;;;;;;1.40;1.30;;;;;;;;;;5073651;28;20192;-86
2021/07/12 04:36:13;;;;;;;1.67;1.58;;;;;;;;;;5073474;28;20212;-86
2021/07/12 04:38:41;;;;;;;1.80;1.70;;;;;;;;;;5073669;28;20185;-85
2021/07/12 04:41:08;;;;;;;2.85;1.90;;;;;;;;;;5074875;28;20196;-86
2021/07/12 04:43:36;;;;;;;1.80;1.70;;;;;;;;;;5075516;28;20228;-86
2021/07/12 04:46:03;;;;;;;1.40;1.30;;;;;;;;;;5074426;28;20276;-86
2021/07/12 04:48:31;;;;;;;2.15;2.05;;;;;;;;;;5073940;28;20216;-86
2021/07/12 04:51:01;;;;;;;2.15;2.05;;;;;;;;;;5077718;28;20254;-86
2021/07/12 04:53:31;;;;;;;1.70;1.60;;;;;;;;;;5073452;28;20208;-86
2021/07/12 04:55:58;;;;;;;1.60;1.50;;;;;;;;;;5073136;28;20192;-87
2021/07/12 04:58:26;;;;;;;1.65;1.55;;;;;;;;;;5072920;28;20181;-87
2021/07/12 05:00:56;;;;;;;1.30;1.20;;;;;;;;;;5072725;28;20204;-86
2021/07/12 05:03:32;;;;;;;1.55;1.45;;;;;;;;;;5072489;28;20221;-86
2021/07/12 05:06:03;;;;;;;1.50;1.40;;;;;;;;;;5072681;28;20643;-86
2021/07/12 05:08:33;;;;;;;1.33;1.23;;;;;;;;;;5072331;28;20566;-86
2021/07/12 05:11:00;;;;;;;1.35;1.25;;;;;;;;;;5072609;28;20283;-87
2021/07/12 05:13:30;;;;;;;1.50;1.40;;;;;;;;;;5073821;28;20205;-86
2021/07/12 05:15:58;;;;;;;1.15;1.15;;;;;;;;;;5074227;28;20242;-85
2021/07/12 05:18:25;;;;;;;1.75;1.65;;;;;;;;;;5074269;28;20201;-86
2021/07/12 05:20:53;;;;;;;1.23;1.23;;;;;;;;;;5073837;28;20190;-87
2021/07/12 05:23:22;;;;;;;2.28;2.17;;;;;;;;;;5073254;28;20217;-86
2021/07/12 05:25:49;;;;;;;1.90;1.70;;;;;;;;;;5073655;28;20177;-87
2021/07/12 05:28:17;;;;;;;1.75;1.65;;;;;;;;;;5072750;28;20212;-86
2021/07/12 05:30:44;;;;;;;2.72;2.53;;;;;;;;;;5072531;28;20189;-86
2021/07/12 05:33:12;;;;;;;2.28;2.10;;;;;;;;;;5072207;28;20227;-86
2021/07/12 05:35:39;;;;;;;1.90;1.73;;;;;;;;;;5073787;28;20196;-86
2021/07/12 05:38:09;;;;;;;1.52;1.42;;;;;;;;;;5074572;28;20197;-86
2021/07/12 05:40:39;;;;;;;1.60;1.50;;;;;;;;;;5073827;28;20201;-87
2021/07/12 05:43:08;;;;;;;1.83;1.73;;;;;;;;;;5071633;28;20217;-86
2021/07/12 05:45:36;;;;;;;2.78;2.58;;;;;;;;;;5072649;28;20209;-86
2021/07/12 05:48:04;;;;;;;2.38;2.17;;;;;;;;;;5072619;28;20291;-86
2021/07/12 05:50:33;;;;;;;1.80;1.70;;;;;;;;;;5072206;28;20185;-87
2021/07/12 05:53:00;;;;;;;3.20;3.00;;;;;;;;;;5072288;28;20236;-86
2021/07/12 05:55:28;;;;;;;2.50;2.30;;;;;;;;;;5072165;28;20197;-87
2021/07/12 05:57:57;;;;;;;2.17;2.05;;;;;;;;;;5072918;28;20186;-86
2021/07/12 06:00:25;;;;;;;2.90;2.70;;;;;;;;;;5072470;28;20192;-86
2021/07/12 06:02:52;;;;;;;2.95;2.75;;;;;;;;;;5072233;28;20963;-87
2021/07/12 06:05:20;;;;;;;2.90;2.70;;;;;;;;;;5072801;28;20572;-85
2021/07/12 06:07:47;;;;;;;2.42;2.25;;;;;;;;;;5073028;28;20221;-86
2021/07/12 06:10:16;;;;;;;2.85;2.65;;;;;;;;;;5073368;28;20255;-85
2021/07/12 06:12:43;;;;;;;3.25;3.00;;;;;;;;;;5073264;28;20211;-86
2021/07/12 06:15:13;;;;;;;4.88;4.47;;;;;;;;;;5073695;28;20232;-86
2021/07/12 06:17:41;;;;;;;2.90;2.70;;;;;;;;;;5074164;28;20186;-86
2021/07/12 06:20:10;;;;;;;5.32;4.82;;;;;;;;;;5073152;28;20621;-86
2021/07/12 06:22:38;;;;;;;4.00;3.70;;;;;;;;;;5072960;28;20217;-86
2021/07/12 06:25:08;;;;;;;4.15;3.75;;;;;;;;;;5073106;28;20198;-86
2021/07/12 06:27:35;;;;;;;4.45;4.07;;;;;;;;;;5074487;28;20209;-86
2021/07/12 06:30:03;;;;;;;6.15;4.75;;;;;;;;;;5076817;28;20559;-85
2021/07/12 06:32:32;;;;;;;5.00;4.60;;;;;;;;;;5077008;28;20704;-86
2021/07/12 06:34:59;;;;;;;5.68;5.15;;;;;;;;;;5077297;28;20185;-86
2021/07/12 06:37:27;;;;;;;6.43;5.82;;;;;;;;;;5075575;28;20271;-87
2021/07/12 06:39:54;;;;;;;5.45;4.82;;;;;;;;;;5076160;28;20186;-86
2021/07/12 06:42:22;;;;;;;6.15;4.93;;;;;;;;;;5075780;28;20247;-85
2021/07/12 06:44:50;;;;;;;5.00;4.60;;;;;;;;;;5075710;28;20197;-85
2021/07/12 06:47:18;;;;;;;3.65;3.35;;;;;;;;;;5075849;28;20185;-86
2021/07/12 06:49:47;;;;;;;4.43;3.60;;;;;;;;;;5076510;28;20255;-86
2021/07/12 06:52:14;;;;;;;4.70;4.30;;;;;;;;;;5076315;28;20248;-86
2021/07/12 06:54:42;;;;;;;4.15;3.85;;;;;;;;;;5077247;28;20197;-85
2021/07/12 06:57:09;;;;;;;6.78;5.45;;;;;;;;;;5076016;28;20268;-86
2021/07/12 06:59:37;;;;;;;4.90;4.50;;;;;;;;;;5077030;28;20823;-86
2021/07/12 07:02:04;;;;;;;5.53;5.03;;;;;;;;;;5076751;28;20304;-86
2021/07/12 07:04:32;;;;;;;6.30;5.80;;;;;;;;;;5074909;28;20197;-86
2021/07/12 07:07:01;;;;;;;4.10;3.70;;;;;;;;;;5076190;28;20216;-86
2021/07/12 07:09:29;;;;;;;3.65;3.35;;;;;;;;;;5075289;28;20221;-86
2021/07/12 07:11:56;;;;;;;3.50;3.20;;;;;;;;;;5075435;28;20274;-85
2021/07/12 07:14:24;;;;;;;3.63;3.33;;;;;;;;;;5075954;28;20190;-86
2021/07/12 07:16:51;;;;;;;3.20;3.00;;;;;;;;;;5072650;28;20232;-86
2021/07/12 07:19:21;;;;;;;4.03;3.72;;;;;;;;;;5074081;28;20189;-87
2021/07/12 07:21:52;;;;;;;4.55;4.15;;;;;;;;;;5074267;28;20312;-86
2021/07/12 07:24:21;;;;;;;4.55;4.13;;;;;;;;;;5074291;28;20181;-86
2021/07/12 07:26:49;;;;;;;5.47;4.97;;;;;;;;;;5073455;28;20193;-86
2021/07/12 07:29:17;;;;;;;6.15;5.55;;;;;;;;;;5074468;28;20290;-87
2021/07/12 07:31:45;;;;;;;6.00;4.88;;;;;;;;;;5066410;28;20210;-86
2021/07/12 07:34:14;;;;;;;4.28;3.90;;;;;;;;;;5054732;28;20190;-85
2021/07/12 07:36:42;;;;;;;3.80;3.50;;;;;;;;;;5071665;28;20194;-87
2021/07/12 07:39:11;;;;;;;5.18;4.50;;;;;;;;;;5073512;28;20197;-86
2021/07/12 07:41:40;;;;;;;5.30;4.90;;;;;;;;;;5074161;28;20224;-87
2021/07/12 07:44:08;;;;;;;3.80;3.50;;;;;;;;;;5074057;28;20229;-87
2021/07/12 07:46:38;;;;;;;4.15;3.80;;;;;;;;;;5073802;28;20195;-86
2021/07/12 07:49:07;;;;;;;6.85;4.65;;;;;;;;;;5073406;28;20205;-86
2021/07/12 07:51:37;;;;;;;4.10;3.78;;;;;;;;;;5073166;28;20229;-88
2021/07/12 07:54:05;;;;;;;4.88;4.50;;;;;;;;;;5073107;28;20192;-87
2021/07/12 07:56:33;;;;;;;4.45;3.97;;;;;;;;;;5072029;28;20189;-88
2021/07/12 07:59:01;;;;;;;4.20;3.90;;;;;;;;;;5053253;28;20206;-88
2021/07/12 08:01:29;;;;;;;4.50;4.10;;;;;;;;;;5052861;28;20213;-87
2021/07/12 08:03:57;;;;;;;3.92;3.63;;;;;;;;;;5067688;28;20181;-87
2021/07/12 08:06:25;;;;;;;4.95;4.43;;;;;;;;;;5072134;28;20185;-87
2021/07/12 08:08:52;;;;;;;4.40;4.10;;;;;;;;;;5072455;28;20241;-87
2021/07/12 08:11:20;;;;;;;4.57;4.18;;;;;;;;;;5069877;28;20208;-87
2021/07/12 08:13:48;;;;;;;4.30;4.00;;;;;;;;;;5071829;28;20683;-86
2021/07/12 08:16:17;;;;;;;5.53;5.13;;;;;;;;;;5073190;28;20585;-86
2021/07/12 08:18:44;;;;;;;4.00;3.70;;;;;;;;;;5072044;28;20201;-87
2021/07/12 08:21:12;;;;;;;4.40;4.10;;;;;;;;;;5069738;28;20205;-85
2021/07/12 08:23:42;;;;;;;4.25;3.85;;;;;;;;;;5070077;28;20205;-85
2021/07/12 08:26:11;;;;;;;4.22;3.45;;;;;;;;;;5070013;28;20209;-88
2021/07/12 08:28:39;;;;;;;3.35;3.15;;;;;;;;;;5069472;28;20205;-86
2021/07/12 08:31:06;;;;;;;2.83;2.63;;;;;;;;;;5069967;28;20205;-86
2021/07/12 08:33:35;;;;;;;2.38;2.28;;;;;;;;;;5069974;28;20311;-86
2021/07/12 08:36:02;;;;;;;4.00;3.65;;;;;;;;;;5069468;28;20211;-87
2021/07/12 08:38:30;;;;;;;3.67;3.33;;;;;;;;;;5069387;28;20209;-88
2021/07/12 08:40:58;;;;;;;4.03;3.72;;;;;;;;;;5069983;28;20204;-87
2021/07/12 08:43:26;;;;;;;3.10;2.90;;;;;;;;;;5069865;28;20231;-88
2021/07/12 08:45:53;;;;;;;4.22;3.83;;;;;;;;;;5069881;28;20196;-88
2021/07/12 08:48:20;;;;;;;3.20;3.00;;;;;;;;;;5069968;28;20201;-87
2021/07/12 08:50:49;;;;;;;3.45;2.92;;;;;;;;;;5068988;28;20597;-87
2021/07/12 08:53:17;;;;;;;3.45;3.15;;;;;;;;;;5069353;28;20698;-87
2021/07/12 08:55:45;;;;;;;3.42;3.13;;;;;;;;;;5069112;28;20205;-87
2021/07/12 08:58:19;;;;;;;2.55;2.40;;;;;;;;;;5069469;28;20202;-88
2021/07/12 09:00:53;;;;;;;2.70;2.50;;;;;;;;;;5069743;28;20211;-88
2021/07/12 09:03:25;;;;;;;2.58;2.38;;;;;;;;;;5069731;28;20289;-88
2021/07/12 09:06:05;;;;;;;3.30;3.10;;;;;;;;;;5068716;28;20849;-88
2021/07/12 09:08:48;;;;;;;2.58;2.40;;;;;;;;;;5071605;28;20662;-88
2021/07/12 09:11:20;;;;;;;2.75;2.55;;;;;;;;;;5071999;28;20239;-87
2021/07/12 09:14:03;;;;;;;2.67;2.50;;;;;;;;;;5071696;28;20204;-88
2021/07/12 09:16:40;;;;;;;2.42;2.33;;;;;;;;;;5071937;28;20277;-88
2021/07/12 09:19:14;;;;;;;2.65;2.45;;;;;;;;;;5071601;28;20203;-87
2021/07/12 09:21:46;;;;;;;2.50;2.40;;;;;;;;;;5067747;28;20218;-86
2021/07/12 09:24:22;;;;;;;1.92;1.83;;;;;;;;;;5066656;28;20198;-85
2021/07/12 09:26:55;;;;;;;2.00;1.90;;;;;;;;;;5058362;28;20203;-87
2021/07/12 09:29:25;;;;;;;2.22;2.13;;;;;;;;;;5066824;28;20248;-87
2021/07/12 09:31:53;;;;;;;2.35;2.25;;;;;;;;;;5070033;28;20209;-87
2021/07/12 09:34:22;;;;;;;1.90;1.80;;;;;;;;;;5065693;28;20546;-87
2021/07/12 09:36:52;;;;;;;2.42;2.00;;;;;;;;;;5069830;28;20214;-86
2021/07/12 09:39:32;;;;;;;2.33;2.22;;;;;;;;;;5066828;28;20197;-85
2021/07/12 09:42:03;;;;;;;2.40;2.25;;;;;;;;;;5071729;28;20232;-86
2021/07/12 09:44:31;;;;;;;2.00;1.90;;;;;;;;;;5071515;28;20203;-87
2021/07/12 09:47:06;;;;;;;1.80;1.70;;;;;;;;;;5068898;28;20660;-86
2021/07/12 09:49:34;;;;;;;1.92;1.83;;;;;;;;;;5068269;28;20204;-85
2021/07/12 09:52:07;;;;;;;2.60;2.40;;;;;;;;;;5068602;28;20719;-86
2021/07/12 09:54:40;;;;;;;2.00;1.90;;;;;;;;;;5068799;28;20197;-87
2021/07/12 09:57:12;;;;;;;2.00;1.88;;;;;;;;;;5068761;28;20204;-87
2021/07/12 09:59:54;;;;;;;2.65;2.45;;;;;;;;;;5068661;28;20215;-86
2021/07/12 10:02:25;;;;;;;2.30;2.20;;;;;;;;;;5071359;28;20608;-87
2021/07/12 10:04:58;;;;;;;1.77;1.67;;;;;;;;;;5072393;28;20204;-86
2021/07/12 10:07:28;;;;;;;1.80;1.70;;;;;;;;;;5072190;28;20205;-87
2021/07/12 10:09:57;;;;;;;1.98;1.88;;;;;;;;;;5072315;28;20236;-87
2021/07/12 10:12:25;;;;;;;2.08;1.98;;;;;;;;;;5072438;28;20220;-87
2021/07/12 10:14:54;;;;;;;2.00;1.85;;;;;;;;;;5072261;28;20197;-86
2021/07/12 10:17:23;;;;;;;2.40;2.30;;;;;;;;;;5072209;28;20209;-87
2021/07/12 10:19:51;;;;;;;2.20;2.00;;;;;;;;;;5072489;28;20208;-88
2021/07/12 10:22:20;;;;;;;2.72;1.83;;;;;;;;;;5072013;28;20224;-87
2021/07/12 10:24:49;;;;;;;1.90;1.80;;;;;;;;;;5072259;28;20197;-87
2021/07/12 10:27:24;;;;;;;2.13;2.03;;;;;;;;;;5071773;28;20208;-86
2021/07/12 10:29:53;;;;;;;2.03;1.92;;;;;;;;;;5072078;28;20239;-86
2021/07/12 10:32:22;;;;;;;2.65;2.55;;;;;;;;;;5072053;28;20311;-85
2021/07/12 10:34:53;;;;;;;2.20;2.10;;;;;;;;;;5071983;28;20266;-87
2021/07/12 10:37:27;;;;;;;1.67;1.63;;;;;;;;;;5072065;28;20231;-86
2021/07/12 10:40:17;;;;;;;1.70;1.60;;;;;;;;;;5071675;28;20196;-87
2021/07/12 10:42:54;;;;;;;1.60;1.50;;;;;;;;;;5071829;28;20221;-87
2021/07/12 10:45:48;;;;;;;1.35;1.35;;;;;;;;;;5071899;28;20299;-86
2021/07/12 10:48:17;;;;;;;2.05;1.95;;;;;;;;;;5071476;28;20227;-85
2021/07/12 10:50:59;;;;;;;2.38;2.28;;;;;;;;;;5071786;28;20737;-86
2021/07/12 10:54:02;;;;;;;2.03;1.90;;;;;;;;;;5071736;28;20224;-86
2021/07/12 10:56:48;;;;;;;2.33;2.22;;;;;;;;;;5068255;28;20208;-86
2021/07/12 10:59:31;;;;;;;2.20;1.95;;;;;;;;;;5051949;28;20212;-88
2021/07/12 11:02:00;;;;;;;1.77;1.67;;;;;;;;;;5051577;28;20229;-86
2021/07/12 11:04:45;;;;;;;1.73;1.63;;;;;;;;;;5051387;28;20201;-86
2021/07/12 11:07:15;;;;;;;1.75;1.65;;;;;;;;;;5056549;28;20291;-87
2021/07/12 11:09:51;;;;;;;1.83;1.73;;;;;;;;;;5071605;28;20208;-87
2021/07/12 11:12:39;;;;;;;1.60;1.50;;;;;;;;;;5070606;28;20231;-87
2021/07/12 11:15:32;;;;;;;2.10;2.00;;;;;;;;;;5071055;28;20216;-86
2021/07/12 11:18:07;;;;;;;2.50;2.10;;;;;;;;;;5055680;28;20296;-88
2021/07/12 11:20:57;;;;;;;1.60;1.50;;;;;;;;;;5051225;28;20201;-86
2021/07/12 11:23:56;;;;;;;1.73;1.63;;;;;;;;;;5051043;28;20221;-86
2021/07/12 11:26:53;;;;;;;2.10;2.00;;;;;;;;;;5051061;28;20217;-87
2021/07/12 11:29:39;;;;;;;2.03;1.92;;;;;;;;;;5049099;28;20248;-86
2021/07/12 11:32:12;;;;;;;1.95;1.85;;;;;;;;;;5050648;28;20225;-87
2021/07/12 11:34:55;;;;;;;1.70;1.60;;;;;;;;;;5051028;28;20205;-87
2021/07/12 11:37:26;;;;;;;1.90;1.80;;;;;;;;;;5057958;28;20621;-85
2021/07/12 11:39:56;;;;;;;1.60;1.50;;;;;;;;;;5070546;28;20205;-86
2021/07/12 11:42:31;;;;;;;2.08;1.98;;;;;;;;;;5070596;28;20270;-86
2021/07/12 11:45:04;;;;;;;2.08;1.98;;;;;;;;;;5070608;28;20591;-85
2021/07/12 11:47:34;;;;;;;1.90;1.80;;;;;;;;;;5070599;28;20588;-86
2021/07/12 11:50:06;;;;;;;2.28;2.17;;;;;;;;;;5070467;28;20228;-86
2021/07/12 11:52:35;;;;;;;2.10;2.00;;;;;;;;;;5070045;28;20239;-86
2021/07/12 11:55:08;;;;;;;2.10;2.00;;;;;;;;;;5072628;28;20205;-87
2021/07/12 11:57:37;;;;;;;2.88;2.72;;;;;;;;;;5072786;28;20193;-88
2021/07/12 12:00:10;;;;;;;2.75;2.17;;;;;;;;;;5072932;28;20189;-85
2021/07/12 12:02:38;;;;;;;1.92;1.83;;;;;;;;;;5073330;28;20309;-89
2021/07/12 12:05:11;;;;;;;1.92;1.83;;;;;;;;;;5073455;28;20195;-87
2021/07/12 12:07:42;;;;;;;2.25;2.15;;;;;;;;;;5073014;28;20262;-88
2021/07/12 12:10:16;;;;;;;2.58;2.45;;;;;;;;;;5073003;28;20197;-87
2021/07/12 12:12:47;;;;;;;2.35;2.25;;;;;;;;;;5072900;28;20266;-86
2021/07/12 12:15:20;;;;;;;2.22;2.13;;;;;;;;;;5072896;28;20197;-88
2021/07/12 12:17:52;;;;;;;2.40;2.30;;;;;;;;;;5072951;28;20256;-88
2021/07/12 12:20:28;;;;;;;1.90;1.80;;;;;;;;;;5070853;28;20215;-87
2021/07/12 12:23:13;;;;;;;1.90;1.80;;;;;;;;;;5092543;28;20218;-86
2021/07/12 12:25:53;;;;;;;2.00;1.90;;;;;;;;;;5072881;28;20195;-85
2021/07/12 12:31:31;;;;;;;2.25;2.08;;;;;;;;;;5053392;28;20227;-86
2021/07/12 12:34:49;;;;;;;2.00;1.90;;;;;;;;;;5072709;28;20564;-88
2021/07/12 12:45:30;;;;;;;1.88;1.77;;;;;;;;;;5053266;28;20197;-86
2021/07/12 12:51:52;;;;;;;1.77;1.67;;;;;;;;;;4902007;28;20371;-89
2021/07/12 12:54:22;;;;;;;1.67;1.58;;;;;;;;;;5014122;28;20232;-85
2021/07/12 12:56:53;;;;;;;2.30;2.20;;;;;;;;;;5068487;28;20216;-85
2021/07/12 12:59:30;;;;;;;2.25;2.05;;;;;;;;;;5052070;28;20212;-86
2021/07/12 13:02:03;;;;;;;1.65;1.55;;;;;;;;;;5052013;28;20592;-86
2021/07/12 13:08:15;;;;;;;2.15;2.05;;;;;;;;;;4960865;28;20588;-87
2021/07/12 13:10:43;;;;;;;1.80;1.70;;;;;;;;;;4993153;28;20190;-87
2021/07/12 13:13:11;;;;;;;1.92;1.83;;;;;;;;;;5051105;28;20236;-87
2021/07/12 13:15:39;;;;;;;1.35;1.35;;;;;;;;;;5065608;28;20682;-86
2021/07/12 13:18:08;;;;;;;1.95;1.85;;;;;;;;;;5058174;28;20269;-84
2021/07/12 13:20:43;;;;;;;1.80;1.70;;;;;;;;;;5057825;28;20217;-87
2021/07/12 13:23:45;;;;;;;1.58;1.40;;;;;;;;;;5071587;28;20221;-86
2021/07/12 13:26:45;;;;;;;1.90;1.80;;;;;;;;;;5071266;28;20204;-88
2021/07/12 13:36:05;;;;;;;1.33;1.33;;;;;;;;;;4842142;26;20268;-87
2021/07/12 14:26:53;;;;;;;1.67;1.58;;;;;;;;;;4824856;29;20217;-86
2021/07/12 14:30:25;;;;;;;1.60;1.50;;;;;;;;;;4822204;29;20233;-88
2021/07/12 14:32:53;;;;;;;1.83;1.73;;;;;;;;;;4859178;29;20238;-87
2021/07/12 14:35:22;;;;;;;1.80;1.70;;;;;;;;;;4897898;29;20195;-87
2021/07/12 14:37:49;;;;;;;1.48;1.45;;;;;;;;;;4928498;29;20202;-87
2021/07/12 14:40:18;;;;;;;1.65;1.55;;;;;;;;;;4936911;29;20198;-86
2021/07/12 14:42:47;;;;;;;1.13;1.13;;;;;;;;;;4945794;28;20277;-86
2021/07/12 14:45:15;;;;;;;1.17;1.17;;;;;;;;;;4936907;29;20213;-86
2021/07/12 14:47:42;;;;;;;1.20;1.20;;;;;;;;;;4935027;29;20190;-86
2021/07/12 14:50:11;;;;;;;1.20;1.20;;;;;;;;;;4936389;29;20186;-85
2021/07/12 14:52:39;;;;;;;1.30;1.30;;;;;;;;;;4935892;29;20234;-86
2021/07/12 14:55:07;;;;;;;1.55;1.45;;;;;;;;;;4936419;29;20186;-87
2021/07/12 14:57:35;;;;;;;1.40;1.30;;;;;;;;;;4936706;29;20201;-87
2021/07/12 15:00:05;;;;;;;2.00;1.42;;;;;;;;;;4938260;29;20248;-87
2021/07/12 15:02:33;;;;;;;1.52;1.42;;;;;;;;;;4947193;28;20604;-86
2021/07/12 15:05:00;;;;;;;1.95;1.85;;;;;;;;;;4935623;29;20209;-89
2021/07/12 15:07:27;;;;;;;1.90;1.80;;;;;;;;;;4935613;29;20217;-87
2021/07/12 15:09:55;;;;;;;1.30;1.30;;;;;;;;;;4936643;29;20209;-86
2021/07/12 15:13:10;;;;;;;1.90;1.80;;;;;;;;;;4955341;29;20248;-86
2021/07/12 15:23:31;;;;;;;1.20;1.20;;;;;;;;;;4963642;23;20291;-87
2021/07/12 15:37:29;;;;;;;2.05;1.48;;;;;;;;;;4842011;29;20217;-86
2021/07/12 15:41:10;;;;;;;;;;;;;;;;;;;;;
2021/07/12 15:51:28;;;;;;;1.80;1.70;;;;;;;;;;4874719;29;20232;-85
2021/07/12 15:54:38;;;;;;;1.20;1.20;;;;;;;;;;4784828;29;20235;-86
2021/07/12 15:57:21;;;;;;;1.30;1.25;;;;;;;;;;4849352;29;20209;-86
2021/07/12 15:59:48;;;;;;;1.25;1.25;;;;;;;;;;4935317;29;20216;-85
2021/07/12 16:02:16;;;;;;;1.40;1.30;;;;;;;;;;4916528;29;20305;-86
2021/07/12 16:04:47;;;;;;;1.20;1.20;;;;;;;;;;4902404;29;20199;-86
2021/07/12 16:07:15;;;;;;;1.17;1.17;;;;;;;;;;4908065;29;20205;-85
2021/07/12 16:09:45;;;;;;;1.10;1.10;;;;;;;;;;4925952;29;20704;-86
2021/07/12 16:15:04;;;;;;;1.10;1.10;;;;;;;;;;4888958;29;20690;-85
2021/07/12 16:17:32;;;;;;;1.67;1.58;;;;;;;;;;4904560;29;20287;-85
2021/07/12 16:20:01;;;;;;;1.27;1.27;;;;;;;;;;4909750;29;20214;-84
2021/07/12 16:22:28;;;;;;;1.20;1.20;;;;;;;;;;4896587;29;20223;-85
2021/07/12 16:24:56;;;;;;;1.10;1.10;;;;;;;;;;4878461;29;20198;-87
2021/07/12 16:27:23;;;;;;;1.20;1.20;;;;;;;;;;4884910;29;20223;-86
2021/07/12 16:29:51;;;;;;;1.70;1.60;;;;;;;;;;4907685;29;20199;-86
2021/07/12 16:32:18;;;;;;;1.25;1.25;;;;;;;;;;4896389;29;20239;-88
2021/07/12 16:34:46;;;;;;;1.90;1.15;;;;;;;;;;4896645;29;20215;-86
2021/07/12 16:37:15;;;;;;;1.10;1.10;;;;;;;;;;4898095;29;20220;-86
2021/07/12 16:39:43;;;;;;;1.40;1.30;;;;;;;;;;4877467;29;20694;-86
2021/07/12 16:42:12;;;;;;;1.27;1.23;;;;;;;;;;4877817;29;20223;-87
2021/07/12 16:44:39;;;;;;;1.13;1.13;;;;;;;;;;4878027;29;20211;-86
2021/07/12 16:47:10;;;;;;;1.65;1.02;;;;;;;;;;4882205;29;20213;-87
2021/07/12 16:49:37;;;;;;;0.88;0.88;;;;;;;;;;4897025;29;20225;-88
2021/07/12 16:52:10;;;;;;;0.90;0.90;;;;;;;;;;4888839;29;20220;-87
2021/07/12 16:54:39;;;;;;;1.13;1.13;;;;;;;;;;4890240;29;20250;-87